VIV315 MUHA-MMUN
Flight info
| Callsign | VIV315 |
|---|---|
| Flight time | 1h 8m |
| Altitude | 34000 |
| Route | MUPKI UB879 NOSAT NOSAT1B |
| Aircraft | A320/M-SDE3FGHIRWY/LB1 |
Departure
| Time | 2026-05-03 22:19 |
|---|---|
| Airport | José Martí International Airport (MUHA) |
Arrival
| Time | 2026-05-03 23:27 |
|---|---|
| Airport | Cancún International Airport (MMUN) |
| Time | Latitude | Longitude | Altitude | Speed | Heading |
|---|---|---|---|---|---|
| 2026-05-03 21:41 | 22.99642 | -82.40727 | 217 ft | 0 kts | 52° |
| 2026-05-03 22:04 | 22.99639 | -82.40731 | 220 ft | 4 kts | 52° |
| 2026-05-03 22:04 | 22.99623 | -82.40754 | 222 ft | 4 kts | 58° |
| 2026-05-03 22:04 | 22.99613 | -82.40779 | 216 ft | 4 kts | 96° |
| 2026-05-03 22:05 | 22.99618 | -82.40793 | 216 ft | 1 kts | 146° |
| 2026-05-03 22:05 | 22.99621 | -82.40794 | 221 ft | 0 kts | 146° |
| 2026-05-03 22:10 | 22.99618 | -82.40792 | 216 ft | 2 kts | 146° |
| 2026-05-03 22:10 | 22.99589 | -82.40771 | 221 ft | 8 kts | 145° |
| 2026-05-03 22:10 | 22.99542 | -82.40736 | 216 ft | 8 kts | 145° |
| 2026-05-03 22:10 | 22.99497 | -82.40703 | 216 ft | 7 kts | 149° |
| 2026-05-03 22:11 | 22.99455 | -82.40720 | 218 ft | 7 kts | 226° |
| 2026-05-03 22:11 | 22.99425 | -82.40757 | 216 ft | 7 kts | 228° |
| 2026-05-03 22:11 | 22.99394 | -82.40796 | 216 ft | 7 kts | 228° |
| 2026-05-03 22:11 | 22.99364 | -82.40836 | 216 ft | 7 kts | 215° |
| 2026-05-03 22:12 | 22.99322 | -82.40828 | 216 ft | 6 kts | 148° |
| 2026-05-03 22:12 | 22.99285 | -82.40802 | 216 ft | 7 kts | 146° |
| 2026-05-03 22:12 | 22.99237 | -82.40770 | 216 ft | 10 kts | 163° |
| 2026-05-03 22:12 | 22.99179 | -82.40827 | 216 ft | 15 kts | 235° |
| 2026-05-03 22:13 | 22.99112 | -82.40943 | 216 ft | 21 kts | 238° |
| 2026-05-03 22:13 | 22.99027 | -82.41094 | 216 ft | 26 kts | 237° |
| 2026-05-03 22:13 | 22.98900 | -82.41250 | 219 ft | 30 kts | 232° |
| 2026-05-03 22:13 | 22.98771 | -82.41446 | 216 ft | 35 kts | 235° |
| 2026-05-03 22:14 | 22.98620 | -82.41676 | 216 ft | 38 kts | 234° |
| 2026-05-03 22:14 | 22.98469 | -82.41907 | 221 ft | 37 kts | 234° |
| 2026-05-03 22:14 | 22.98338 | -82.42098 | 218 ft | 31 kts | 233° |
| 2026-05-03 22:14 | 22.98212 | -82.42284 | 218 ft | 30 kts | 234° |
| 2026-05-03 22:15 | 22.98094 | -82.42466 | 218 ft | 28 kts | 235° |
| 2026-05-03 22:15 | 22.98002 | -82.42564 | 225 ft | 17 kts | 193° |
| 2026-05-03 22:15 | 22.97951 | -82.42544 | 216 ft | 0 kts | 140° |
| 2026-05-03 22:16 | 22.97949 | -82.42542 | 216 ft | 1 kts | 140° |
| 2026-05-03 22:16 | 22.97930 | -82.42526 | 221 ft | 7 kts | 143° |
| 2026-05-03 22:16 | 22.97889 | -82.42487 | 217 ft | 7 kts | 114° |
| 2026-05-03 22:16 | 22.97896 | -82.42441 | 217 ft | 6 kts | 59° |
| 2026-05-03 22:17 | 22.97904 | -82.42429 | 222 ft | 0 kts | 53° |
| 2026-05-03 22:18 | 22.97975 | -82.42323 | 223 ft | 48 kts | 54° |
| 2026-05-03 22:18 | 22.98301 | -82.41834 | 215 ft | 109 kts | 54° |
| 2026-05-03 22:18 | 22.98838 | -82.41025 | 216 ft | 153 kts | 54° |
| 2026-05-03 22:18 | 22.99507 | -82.39998 | 550 ft | 167 kts | 54° |
| 2026-05-03 22:19 | 23.00157 | -82.38983 | 1314 ft | 162 kts | 53° |
| 2026-05-03 22:19 | 23.00824 | -82.37986 | 1955 ft | 166 kts | 52° |
| 2026-05-03 22:19 | 23.01555 | -82.36907 | 2312 ft | 189 kts | 54° |
| 2026-05-03 22:19 | 23.02371 | -82.35685 | 2565 ft | 211 kts | 54° |
| 2026-05-03 22:20 | 23.03282 | -82.34317 | 2790 ft | 236 kts | 53° |
| 2026-05-03 22:20 | 23.04292 | -82.32796 | 3169 ft | 261 kts | 53° |
| 2026-05-03 22:20 | 23.05382 | -82.31154 | 3804 ft | 273 kts | 54° |
| 2026-05-03 22:20 | 23.06506 | -82.29463 | 4633 ft | 278 kts | 54° |
| 2026-05-03 22:21 | 23.07647 | -82.27741 | 5462 ft | 284 kts | 54° |
| 2026-05-03 22:21 | 23.08808 | -82.25986 | 6268 ft | 288 kts | 54° |
| 2026-05-03 22:21 | 23.09988 | -82.24202 | 7040 ft | 293 kts | 54° |
| 2026-05-03 22:21 | 23.11189 | -82.22388 | 7781 ft | 298 kts | 54° |
| 2026-05-03 22:22 | 23.12436 | -82.20567 | 8515 ft | 303 kts | 47° |
| 2026-05-03 22:22 | 23.14097 | -82.19162 | 9209 ft | 306 kts | 25° |
| 2026-05-03 22:22 | 23.16134 | -82.18523 | 9893 ft | 307 kts | 2° |
| 2026-05-03 22:22 | 23.18269 | -82.18740 | 10342 ft | 316 kts | 340° |
| 2026-05-03 22:23 | 23.20377 | -82.19565 | 10515 ft | 336 kts | 337° |
| 2026-05-03 22:23 | 23.22597 | -82.20479 | 11000 ft | 344 kts | 336° |
| 2026-05-03 22:23 | 23.24741 | -82.21640 | 11618 ft | 345 kts | 321° |
| 2026-05-03 22:23 | 23.26424 | -82.23473 | 12274 ft | 343 kts | 303° |
| 2026-05-03 22:24 | 23.27464 | -82.25790 | 12919 ft | 342 kts | 284° |
| 2026-05-03 22:24 | 23.27759 | -82.28346 | 13553 ft | 342 kts | 266° |
| 2026-05-03 22:24 | 23.27332 | -82.30887 | 14163 ft | 344 kts | 255° |
| 2026-05-03 22:24 | 23.26742 | -82.33413 | 14786 ft | 345 kts | 255° |
| 2026-05-03 22:25 | 23.26142 | -82.35952 | 15385 ft | 348 kts | 255° |
| 2026-05-03 22:25 | 23.25541 | -82.38503 | 15983 ft | 350 kts | 255° |
| 2026-05-03 22:25 | 23.25141 | -82.40205 | 16383 ft | 351 kts | 255° |
| 2026-05-03 22:25 | 23.24537 | -82.42786 | 16935 ft | 353 kts | 255° |
| 2026-05-03 22:26 | 23.23928 | -82.45388 | 17500 ft | 356 kts | 255° |
| 2026-05-03 22:26 | 23.23317 | -82.48001 | 18053 ft | 358 kts | 255° |
| 2026-05-03 22:26 | 23.22705 | -82.50632 | 18588 ft | 360 kts | 255° |
| 2026-05-03 22:26 | 23.22089 | -82.53280 | 19101 ft | 363 kts | 255° |
| 2026-05-03 22:27 | 23.21469 | -82.55947 | 19626 ft | 365 kts | 255° |
| 2026-05-03 22:27 | 23.20843 | -82.58630 | 20134 ft | 367 kts | 255° |
| 2026-05-03 22:27 | 23.20211 | -82.61327 | 20630 ft | 370 kts | 255° |
| 2026-05-03 22:27 | 23.19573 | -82.64042 | 21110 ft | 371 kts | 255° |
| 2026-05-03 22:28 | 23.18932 | -82.66767 | 21575 ft | 373 kts | 255° |
| 2026-05-03 22:28 | 23.18287 | -82.69507 | 22031 ft | 376 kts | 255° |
| 2026-05-03 22:28 | 23.17637 | -82.72266 | 22479 ft | 378 kts | 255° |
| 2026-05-03 22:28 | 23.16985 | -82.75040 | 22923 ft | 380 kts | 255° |
| 2026-05-03 22:29 | 23.16328 | -82.77827 | 23344 ft | 381 kts | 255° |
| 2026-05-03 22:29 | 23.15663 | -82.80628 | 23756 ft | 384 kts | 255° |
| 2026-05-03 22:29 | 23.14997 | -82.83440 | 24171 ft | 385 kts | 256° |
| 2026-05-03 22:29 | 23.14335 | -82.86264 | 24567 ft | 387 kts | 256° |
| 2026-05-03 22:30 | 23.13672 | -82.89103 | 24947 ft | 389 kts | 256° |
| 2026-05-03 22:30 | 23.13002 | -82.91956 | 25325 ft | 391 kts | 255° |
| 2026-05-03 22:30 | 23.12323 | -82.94822 | 25701 ft | 392 kts | 255° |
| 2026-05-03 22:30 | 23.11641 | -82.97698 | 26077 ft | 394 kts | 255° |
| 2026-05-03 22:31 | 23.10959 | -83.00581 | 26442 ft | 395 kts | 255° |
| 2026-05-03 22:31 | 23.10275 | -83.03479 | 26790 ft | 396 kts | 255° |
| 2026-05-03 22:31 | 23.09603 | -83.06387 | 27157 ft | 397 kts | 256° |
| 2026-05-03 22:31 | 23.09218 | -83.09357 | 27485 ft | 401 kts | 270° |
| 2026-05-03 22:32 | 23.09715 | -83.12344 | 27803 ft | 408 kts | 287° |
| 2026-05-03 22:32 | 23.10933 | -83.15107 | 28108 ft | 413 kts | 294° |
| 2026-05-03 22:32 | 23.12316 | -83.17857 | 28438 ft | 416 kts | 295° |
| 2026-05-03 22:32 | 23.13716 | -83.20610 | 28771 ft | 418 kts | 295° |
| 2026-05-03 22:33 | 23.15136 | -83.23383 | 29119 ft | 420 kts | 295° |
| 2026-05-03 22:33 | 23.16561 | -83.26164 | 29466 ft | 422 kts | 295° |
| 2026-05-03 22:33 | 23.17991 | -83.28942 | 29813 ft | 423 kts | 295° |
| 2026-05-03 22:33 | 23.19441 | -83.31735 | 30146 ft | 424 kts | 295° |
| 2026-05-03 22:34 | 23.20898 | -83.34535 | 30461 ft | 426 kts | 295° |
| 2026-05-03 22:34 | 23.22345 | -83.37355 | 30778 ft | 426 kts | 291° |
| 2026-05-03 22:34 | 23.23264 | -83.40372 | 31084 ft | 418 kts | 275° |
| 2026-05-03 22:34 | 23.23349 | -83.43506 | 31430 ft | 414 kts | 265° |
| 2026-05-03 22:35 | 23.23193 | -83.46627 | 31869 ft | 412 kts | 265° |
| 2026-05-03 22:35 | 23.23022 | -83.49728 | 32337 ft | 410 kts | 265° |
| 2026-05-03 22:35 | 23.22847 | -83.52814 | 32798 ft | 408 kts | 265° |
| 2026-05-03 22:35 | 23.22671 | -83.55883 | 33248 ft | 406 kts | 265° |
| 2026-05-03 22:36 | 23.22499 | -83.58935 | 33712 ft | 404 kts | 265° |
| 2026-05-03 22:36 | 23.22324 | -83.61976 | 33971 ft | 402 kts | 265° |
| 2026-05-03 22:36 | 23.22152 | -83.65008 | 34025 ft | 401 kts | 265° |
| 2026-05-03 22:37 | 23.21811 | -83.71037 | 34027 ft | 400 kts | 265° |
| 2026-05-03 22:37 | 23.21474 | -83.77068 | 34026 ft | 399 kts | 265° |
| 2026-05-03 22:38 | 23.21142 | -83.83100 | 34025 ft | 399 kts | 265° |
| 2026-05-03 22:38 | 23.20815 | -83.89130 | 34026 ft | 399 kts | 265° |
| 2026-05-03 22:39 | 23.20492 | -83.95155 | 34019 ft | 399 kts | 265° |
| 2026-05-03 22:39 | 23.20172 | -84.01182 | 34022 ft | 399 kts | 265° |
| 2026-05-03 22:40 | 23.19850 | -84.07158 | 34029 ft | 398 kts | 265° |
| 2026-05-03 22:40 | 23.19527 | -84.13169 | 34026 ft | 398 kts | 265° |
| 2026-05-03 22:41 | 23.19208 | -84.19183 | 34024 ft | 399 kts | 265° |
| 2026-05-03 22:41 | 23.18388 | -84.25111 | 34022 ft | 398 kts | 248° |
| 2026-05-03 22:41 | 23.16996 | -84.27712 | 34024 ft | 401 kts | 236° |
| 2026-05-03 22:42 | 23.15305 | -84.30132 | 34026 ft | 402 kts | 235° |
| 2026-05-03 22:42 | 23.11865 | -84.34942 | 34029 ft | 403 kts | 235° |
| 2026-05-03 22:43 | 23.08404 | -84.39746 | 34031 ft | 404 kts | 235° |
| 2026-05-03 22:43 | 23.04955 | -84.44570 | 34023 ft | 405 kts | 235° |
| 2026-05-03 22:44 | 23.01512 | -84.49406 | 34022 ft | 405 kts | 235° |
| 2026-05-03 22:44 | 22.98050 | -84.54246 | 34026 ft | 406 kts | 235° |
| 2026-05-03 22:45 | 22.94579 | -84.59086 | 34017 ft | 407 kts | 235° |
| 2026-05-03 22:45 | 22.91107 | -84.63933 | 34017 ft | 407 kts | 235° |
| 2026-05-03 22:46 | 22.87634 | -84.68777 | 34020 ft | 407 kts | 235° |
| 2026-05-03 22:46 | 22.84161 | -84.73622 | 34013 ft | 407 kts | 235° |
| 2026-05-03 22:47 | 22.80677 | -84.78473 | 34018 ft | 408 kts | 235° |
| 2026-05-03 22:47 | 22.77187 | -84.83322 | 34017 ft | 408 kts | 235° |
| 2026-05-03 22:48 | 22.73693 | -84.88170 | 34021 ft | 408 kts | 235° |
| 2026-05-03 22:48 | 22.70189 | -84.93027 | 34016 ft | 409 kts | 235° |
| 2026-05-03 22:49 | 22.66709 | -84.97857 | 34014 ft | 410 kts | 235° |
| 2026-05-03 22:49 | 22.63201 | -85.02724 | 34019 ft | 410 kts | 235° |
| 2026-05-03 22:50 | 22.59693 | -85.07589 | 34019 ft | 410 kts | 235° |
| 2026-05-03 22:50 | 22.56270 | -85.12471 | 33764 ft | 400 kts | 236° |
| 2026-05-03 22:50 | 22.54618 | -85.14862 | 33513 ft | 395 kts | 236° |
| 2026-05-03 22:51 | 22.52982 | -85.17235 | 33261 ft | 392 kts | 236° |
| 2026-05-03 22:51 | 22.51358 | -85.19590 | 33011 ft | 390 kts | 236° |
| 2026-05-03 22:51 | 22.49735 | -85.21936 | 32761 ft | 389 kts | 236° |
| 2026-05-03 22:51 | 22.48110 | -85.24270 | 32511 ft | 387 kts | 236° |
| 2026-05-03 22:52 | 22.46490 | -85.26589 | 32256 ft | 386 kts | 236° |
| 2026-05-03 22:52 | 22.44872 | -85.28901 | 32008 ft | 385 kts | 236° |
| 2026-05-03 22:52 | 22.43259 | -85.31206 | 31757 ft | 384 kts | 235° |
| 2026-05-03 22:52 | 22.41654 | -85.33503 | 31506 ft | 382 kts | 235° |
| 2026-05-03 22:53 | 22.40057 | -85.35792 | 31257 ft | 381 kts | 235° |
| 2026-05-03 22:53 | 22.38459 | -85.38080 | 31005 ft | 380 kts | 235° |
| 2026-05-03 22:53 | 22.36867 | -85.40353 | 30758 ft | 379 kts | 235° |
| 2026-05-03 22:53 | 22.35275 | -85.42621 | 30503 ft | 378 kts | 235° |
| 2026-05-03 22:54 | 22.33692 | -85.44878 | 30250 ft | 376 kts | 235° |
| 2026-05-03 22:54 | 22.32115 | -85.47130 | 30012 ft | 376 kts | 235° |
| 2026-05-03 22:54 | 22.30542 | -85.49378 | 29761 ft | 374 kts | 235° |
| 2026-05-03 22:54 | 22.28976 | -85.51616 | 29503 ft | 373 kts | 235° |
| 2026-05-03 22:55 | 22.27414 | -85.53844 | 29253 ft | 372 kts | 235° |
| 2026-05-03 22:55 | 22.25853 | -85.56070 | 29005 ft | 371 kts | 235° |
| 2026-05-03 22:55 | 22.24300 | -85.58285 | 28750 ft | 370 kts | 235° |
| 2026-05-03 22:55 | 22.22771 | -85.60467 | 28496 ft | 368 kts | 235° |
| 2026-05-03 22:56 | 22.21210 | -85.62700 | 28250 ft | 368 kts | 235° |
| 2026-05-03 22:56 | 22.19672 | -85.64901 | 27996 ft | 367 kts | 235° |
| 2026-05-03 22:56 | 22.18137 | -85.67097 | 27751 ft | 366 kts | 235° |
| 2026-05-03 22:56 | 22.16624 | -85.69254 | 27504 ft | 365 kts | 235° |
| 2026-05-03 22:57 | 22.15095 | -85.71431 | 27254 ft | 363 kts | 235° |
| 2026-05-03 22:57 | 22.13578 | -85.73595 | 27003 ft | 359 kts | 235° |
| 2026-05-03 22:57 | 22.12079 | -85.75732 | 26625 ft | 355 kts | 235° |
| 2026-05-03 22:57 | 22.10595 | -85.77848 | 26225 ft | 352 kts | 235° |
| 2026-05-03 22:58 | 22.09118 | -85.79953 | 25824 ft | 349 kts | 235° |
| 2026-05-03 22:58 | 22.07657 | -85.82033 | 25405 ft | 348 kts | 235° |
| 2026-05-03 22:58 | 22.06184 | -85.84118 | 24977 ft | 350 kts | 236° |
| 2026-05-03 22:58 | 22.04712 | -85.86209 | 24553 ft | 350 kts | 236° |
| 2026-05-03 22:59 | 22.03245 | -85.88296 | 24129 ft | 349 kts | 236° |
| 2026-05-03 22:59 | 22.01787 | -85.90374 | 23711 ft | 347 kts | 236° |
| 2026-05-03 22:59 | 22.00331 | -85.92452 | 23148 ft | 348 kts | 236° |
| 2026-05-03 22:59 | 21.98881 | -85.94524 | 22724 ft | 345 kts | 236° |
| 2026-05-03 23:00 | 21.97440 | -85.96574 | 22309 ft | 341 kts | 236° |
| 2026-05-03 23:00 | 21.95909 | -85.98519 | 21918 ft | 341 kts | 226° |
| 2026-05-03 23:00 | 21.94132 | -86.00193 | 21813 ft | 341 kts | 224° |
| 2026-05-03 23:00 | 21.92342 | -86.01876 | 21738 ft | 342 kts | 225° |
| 2026-05-03 23:01 | 21.90553 | -86.03569 | 21630 ft | 342 kts | 225° |
| 2026-05-03 23:01 | 21.88765 | -86.05263 | 21512 ft | 342 kts | 225° |
| 2026-05-03 23:01 | 21.86978 | -86.06953 | 21399 ft | 342 kts | 224° |
| 2026-05-03 23:01 | 21.85190 | -86.08638 | 21280 ft | 341 kts | 224° |
| 2026-05-03 23:02 | 21.83403 | -86.10314 | 21163 ft | 340 kts | 224° |
| 2026-05-03 23:02 | 21.81617 | -86.11989 | 21053 ft | 341 kts | 224° |
| 2026-05-03 23:02 | 21.79834 | -86.13668 | 20932 ft | 340 kts | 224° |
| 2026-05-03 23:02 | 21.78053 | -86.15347 | 20818 ft | 340 kts | 224° |
| 2026-05-03 23:03 | 21.76298 | -86.17003 | 20706 ft | 339 kts | 224° |
| 2026-05-03 23:03 | 21.74522 | -86.18674 | 20590 ft | 339 kts | 224° |
| 2026-05-03 23:03 | 21.72745 | -86.20343 | 20473 ft | 339 kts | 224° |
| 2026-05-03 23:03 | 21.70970 | -86.22009 | 20361 ft | 338 kts | 224° |
| 2026-05-03 23:04 | 21.69197 | -86.23673 | 20237 ft | 338 kts | 224° |
| 2026-05-03 23:04 | 21.67426 | -86.25335 | 20121 ft | 338 kts | 224° |
| 2026-05-03 23:04 | 21.65669 | -86.26982 | 19950 ft | 332 kts | 224° |
| 2026-05-03 23:04 | 21.63945 | -86.28597 | 19640 ft | 326 kts | 224° |
| 2026-05-03 23:05 | 21.62244 | -86.30191 | 19292 ft | 323 kts | 224° |
| 2026-05-03 23:05 | 21.60556 | -86.31777 | 18932 ft | 321 kts | 224° |
| 2026-05-03 23:05 | 21.58876 | -86.33353 | 18577 ft | 320 kts | 224° |
| 2026-05-03 23:05 | 21.57201 | -86.34922 | 18221 ft | 319 kts | 224° |
| 2026-05-03 23:06 | 21.55532 | -86.36483 | 17864 ft | 317 kts | 224° |
| 2026-05-03 23:06 | 21.53872 | -86.38039 | 17511 ft | 316 kts | 224° |
| 2026-05-03 23:06 | 21.52150 | -86.39503 | 17152 ft | 317 kts | 216° |
| 2026-05-03 23:06 | 21.50318 | -86.40812 | 16798 ft | 316 kts | 216° |
| 2026-05-03 23:07 | 21.48493 | -86.42117 | 16441 ft | 315 kts | 216° |
| 2026-05-03 23:07 | 21.46677 | -86.43418 | 16098 ft | 313 kts | 216° |
| 2026-05-03 23:07 | 21.44869 | -86.44713 | 15741 ft | 312 kts | 216° |
| 2026-05-03 23:07 | 21.43090 | -86.45984 | 15396 ft | 311 kts | 216° |
| 2026-05-03 23:08 | 21.41293 | -86.47268 | 15051 ft | 310 kts | 216° |
| 2026-05-03 23:08 | 21.39501 | -86.48549 | 14699 ft | 309 kts | 216° |
| 2026-05-03 23:08 | 21.37718 | -86.49824 | 14352 ft | 307 kts | 216° |
| 2026-05-03 23:08 | 21.35941 | -86.51092 | 14012 ft | 306 kts | 216° |
| 2026-05-03 23:09 | 21.34168 | -86.52360 | 13620 ft | 306 kts | 216° |
| 2026-05-03 23:09 | 21.32398 | -86.53629 | 13231 ft | 306 kts | 216° |
| 2026-05-03 23:09 | 21.30630 | -86.54893 | 12838 ft | 306 kts | 216° |
| 2026-05-03 23:09 | 21.28861 | -86.56159 | 12433 ft | 306 kts | 216° |
| 2026-05-03 23:10 | 21.27090 | -86.57427 | 12036 ft | 306 kts | 216° |
| 2026-05-03 23:10 | 21.25320 | -86.58692 | 11650 ft | 306 kts | 216° |
| 2026-05-03 23:10 | 21.23558 | -86.59950 | 11298 ft | 304 kts | 215° |
| 2026-05-03 23:10 | 21.21801 | -86.61206 | 10981 ft | 301 kts | 215° |
| 2026-05-03 23:11 | 21.20052 | -86.62454 | 10603 ft | 301 kts | 215° |
| 2026-05-03 23:11 | 21.18321 | -86.63684 | 10195 ft | 301 kts | 214° |
| 2026-05-03 23:11 | 21.16597 | -86.64910 | 9928 ft | 297 kts | 214° |
| 2026-05-03 23:11 | 21.15458 | -86.65721 | 9693 ft | 296 kts | 214° |
| 2026-05-03 23:12 | 21.13747 | -86.66941 | 9333 ft | 295 kts | 214° |
| 2026-05-03 23:12 | 21.12042 | -86.68159 | 8984 ft | 294 kts | 214° |
| 2026-05-03 23:12 | 21.10352 | -86.69367 | 8732 ft | 289 kts | 214° |
| 2026-05-03 23:12 | 21.08711 | -86.70549 | 8607 ft | 279 kts | 217° |
| 2026-05-03 23:13 | 21.07502 | -86.72070 | 8453 ft | 263 kts | 248° |
| 2026-05-03 23:13 | 21.07306 | -86.73951 | 8100 ft | 256 kts | 283° |
| 2026-05-03 23:13 | 21.08079 | -86.75629 | 7729 ft | 252 kts | 303° |
| 2026-05-03 23:13 | 21.09060 | -86.77181 | 7401 ft | 252 kts | 303° |
| 2026-05-03 23:14 | 21.10043 | -86.78732 | 7102 ft | 251 kts | 303° |
| 2026-05-03 23:14 | 21.11022 | -86.80275 | 6805 ft | 251 kts | 303° |
| 2026-05-03 23:14 | 21.11995 | -86.81820 | 6505 ft | 249 kts | 303° |
| 2026-05-03 23:14 | 21.12959 | -86.83357 | 6232 ft | 247 kts | 303° |
| 2026-05-03 23:15 | 21.13916 | -86.84881 | 5950 ft | 246 kts | 303° |
| 2026-05-03 23:15 | 21.14866 | -86.86401 | 5668 ft | 245 kts | 303° |
| 2026-05-03 23:15 | 21.15810 | -86.87912 | 5398 ft | 244 kts | 303° |
| 2026-05-03 23:15 | 21.16751 | -86.89419 | 5138 ft | 243 kts | 303° |
| 2026-05-03 23:16 | 21.17687 | -86.90923 | 4861 ft | 242 kts | 303° |
| 2026-05-03 23:16 | 21.18621 | -86.92420 | 4589 ft | 242 kts | 303° |
| 2026-05-03 23:16 | 21.19556 | -86.93915 | 4317 ft | 241 kts | 303° |
| 2026-05-03 23:16 | 21.20484 | -86.95402 | 4090 ft | 237 kts | 303° |
| 2026-05-03 23:17 | 21.21393 | -86.96860 | 3869 ft | 233 kts | 303° |
| 2026-05-03 23:17 | 21.22285 | -86.98290 | 3622 ft | 230 kts | 303° |
| 2026-05-03 23:17 | 21.23170 | -86.99708 | 3327 ft | 229 kts | 303° |
| 2026-05-03 23:17 | 21.24057 | -87.01127 | 3046 ft | 228 kts | 303° |
| 2026-05-03 23:18 | 21.24915 | -87.02506 | 2976 ft | 216 kts | 303° |
| 2026-05-03 23:18 | 21.25736 | -87.03826 | 2982 ft | 210 kts | 303° |
| 2026-05-03 23:18 | 21.26545 | -87.05124 | 2986 ft | 209 kts | 303° |
| 2026-05-03 23:18 | 21.27128 | -87.06529 | 2988 ft | 207 kts | 278° |
| 2026-05-03 23:19 | 21.27012 | -87.08044 | 2988 ft | 205 kts | 248° |
| 2026-05-03 23:19 | 21.26211 | -87.09284 | 2986 ft | 203 kts | 217° |
| 2026-05-03 23:19 | 21.24956 | -87.09923 | 2989 ft | 201 kts | 188° |
| 2026-05-03 23:19 | 21.23586 | -87.09819 | 2986 ft | 199 kts | 159° |
| 2026-05-03 23:20 | 21.22418 | -87.09045 | 2995 ft | 198 kts | 140° |
| 2026-05-03 23:20 | 21.21370 | -87.08132 | 3004 ft | 187 kts | 141° |
| 2026-05-03 23:20 | 21.20407 | -87.07298 | 2977 ft | 170 kts | 141° |
| 2026-05-03 23:20 | 21.19527 | -87.06535 | 2974 ft | 158 kts | 141° |
| 2026-05-03 23:21 | 21.18684 | -87.05806 | 2993 ft | 154 kts | 141° |
| 2026-05-03 23:21 | 21.17854 | -87.05090 | 2987 ft | 153 kts | 141° |
| 2026-05-03 23:21 | 21.17049 | -87.04397 | 2999 ft | 147 kts | 141° |
| 2026-05-03 23:21 | 21.16258 | -87.03714 | 2990 ft | 145 kts | 141° |
| 2026-05-03 23:22 | 21.14701 | -87.02367 | 2988 ft | 145 kts | 141° |
| 2026-05-03 23:22 | 21.13995 | -87.01607 | 2988 ft | 144 kts | 128° |
| 2026-05-03 23:22 | 21.13394 | -87.00739 | 2908 ft | 146 kts | 126° |
| 2026-05-03 23:23 | 21.12814 | -86.99853 | 2648 ft | 144 kts | 124° |
| 2026-05-03 23:23 | 21.12251 | -86.98970 | 2430 ft | 143 kts | 124° |
| 2026-05-03 23:23 | 21.11695 | -86.98089 | 2235 ft | 143 kts | 124° |
| 2026-05-03 23:23 | 21.11143 | -86.97210 | 2043 ft | 142 kts | 125° |
| 2026-05-03 23:24 | 21.10596 | -86.96336 | 1854 ft | 141 kts | 124° |
| 2026-05-03 23:24 | 21.10051 | -86.95464 | 1669 ft | 140 kts | 125° |
| 2026-05-03 23:24 | 21.09510 | -86.94598 | 1471 ft | 140 kts | 125° |
| 2026-05-03 23:24 | 21.08969 | -86.93734 | 1291 ft | 139 kts | 125° |
| 2026-05-03 23:25 | 21.08432 | -86.92873 | 1102 ft | 139 kts | 125° |
| 2026-05-03 23:25 | 21.07894 | -86.92014 | 924 ft | 139 kts | 125° |
| 2026-05-03 23:25 | 21.07357 | -86.91155 | 735 ft | 139 kts | 125° |
| 2026-05-03 23:25 | 21.06821 | -86.90298 | 559 ft | 139 kts | 125° |
| 2026-05-03 23:26 | 21.06284 | -86.89438 | 381 ft | 139 kts | 125° |
| 2026-05-03 23:26 | 21.05749 | -86.88579 | 241 ft | 139 kts | 126° |
| 2026-05-03 23:26 | 21.05210 | -86.87724 | 42 ft | 133 kts | 124° |
| 2026-05-03 23:26 | 21.04833 | -86.87114 | 37 ft | 56 kts | 123° |
| 2026-05-03 23:27 | 21.04740 | -86.86968 | 36 ft | 11 kts | 126° |
| 2026-05-03 23:27 | 21.04724 | -86.86949 | 38 ft | 0 kts | 152° |
| 2026-05-03 23:27 | 21.04716 | -86.86949 | 38 ft | 3 kts | 175° |
| 2026-05-03 23:27 | 21.04686 | -86.86960 | 38 ft | 6 kts | 213° |
| 2026-05-03 23:28 | 21.04644 | -86.86992 | 41 ft | 8 kts | 215° |
| 2026-05-03 23:28 | 21.04590 | -86.87034 | 41 ft | 10 kts | 235° |
| 2026-05-03 23:28 | 21.04612 | -86.87091 | 41 ft | 0 kts | 304° |
| 2026-05-03 23:29 | 21.04622 | -86.87108 | 42 ft | 11 kts | 302° |
| 2026-05-03 23:29 | 21.04707 | -86.87244 | 42 ft | 27 kts | 304° |
| 2026-05-03 23:29 | 21.04817 | -86.87421 | 42 ft | 30 kts | 303° |
| 2026-05-03 23:30 | 21.04935 | -86.87607 | 40 ft | 32 kts | 304° |
| 2026-05-03 23:30 | 21.05061 | -86.87809 | 42 ft | 34 kts | 306° |
| 2026-05-03 23:30 | 21.05190 | -86.88002 | 42 ft | 19 kts | 304° |
| 2026-05-03 23:30 | 21.05217 | -86.88075 | 42 ft | 10 kts | 265° |
| 2026-05-03 23:31 | 21.05164 | -86.88129 | 42 ft | 12 kts | 213° |
| 2026-05-03 23:31 | 21.05087 | -86.88182 | 43 ft | 14 kts | 213° |
| 2026-05-03 23:31 | 21.04995 | -86.88247 | 42 ft | 17 kts | 213° |
| 2026-05-03 23:31 | 21.04924 | -86.88298 | 43 ft | 9 kts | 214° |
| 2026-05-03 23:32 | 21.04886 | -86.88294 | 40 ft | 5 kts | 141° |
| 2026-05-03 23:32 | 21.04853 | -86.88263 | 42 ft | 8 kts | 137° |
| 2026-05-03 23:32 | 21.04835 | -86.88246 | 43 ft | 0 kts | 137° |